sensor_id;sensor_type;location;lat;lon;timestamp;pressure;altitude;pressure_sealevel;temperature;humidity
56040;BME280;43937;41.366;2.072;2023-08-17T00:01:33;100682.88;;;27.91;89.83
56040;BME280;43937;41.366;2.072;2023-08-17T00:03:59;100697.34;;;28.18;88.62
56040;BME280;43937;41.366;2.072;2023-08-17T00:06:24;100685.53;;;28.31;86.86
56040;BME280;43937;41.366;2.072;2023-08-17T00:08:51;100695.63;;;28.22;88.15
56040;BME280;43937;41.366;2.072;2023-08-17T00:11:16;100700.63;;;28.41;86.55
56040;BME280;43937;41.366;2.072;2023-08-17T00:13:42;100700.34;;;28.42;86.24
56040;BME280;43937;41.366;2.072;2023-08-17T00:16:07;100700.16;;;28.13;87.52
56040;BME280;43937;41.366;2.072;2023-08-17T00:18:32;100686.16;;;28.18;86.92
56040;BME280;43937;41.366;2.072;2023-08-17T00:20:58;100692.31;;;28.20;87.34
56040;BME280;43937;41.366;2.072;2023-08-17T00:23:23;100669.69;;;28.01;88.74
56040;BME280;43937;41.366;2.072;2023-08-17T00:25:49;100672.44;;;28.17;87.63
56040;BME280;43937;41.366;2.072;2023-08-17T00:28:14;100674.75;;;27.99;87.79
56040;BME280;43937;41.366;2.072;2023-08-17T00:30:40;100681.97;;;28.16;88.04
56040;BME280;43937;41.366;2.072;2023-08-17T00:33:05;100683.38;;;28.13;88.51
56040;BME280;43937;41.366;2.072;2023-08-17T00:35:31;100677.19;;;28.21;87.59
56040;BME280;43937;41.366;2.072;2023-08-17T00:37:58;100677.75;;;28.23;88.25
56040;BME280;43937;41.366;2.072;2023-08-17T00:40:23;100674.28;;;28.47;86.99
56040;BME280;43937;41.366;2.072;2023-08-17T00:42:49;100677.38;;;28.45;86.60
56040;BME280;43937;41.366;2.072;2023-08-17T00:45:14;100678.78;;;28.38;86.86
56040;BME280;43937;41.366;2.072;2023-08-17T00:47:40;100663.81;;;27.98;88.74
56040;BME280;43937;41.366;2.072;2023-08-17T00:50:07;100675.16;;;28.32;87.21
56040;BME280;43937;41.366;2.072;2023-08-17T00:52:33;100659.81;;;28.24;87.54
56040;BME280;43937;41.366;2.072;2023-08-17T00:55:00;100669.94;;;28.15;87.92
56040;BME280;43937;41.366;2.072;2023-08-17T00:57:47;100674.34;;;28.42;87.25
56040;BME280;43937;41.366;2.072;2023-08-17T01:00:13;100636.16;;;27.86;87.85
56040;BME280;43937;41.366;2.072;2023-08-17T01:02:42;100671.09;;;27.99;87.71
56040;BME280;43937;41.366;2.072;2023-08-17T01:05:08;100673.00;;;28.14;87.71
56040;BME280;43937;41.366;2.072;2023-08-17T01:07:34;100680.56;;;28.18;86.98
56040;BME280;43937;41.366;2.072;2023-08-17T01:10:01;100685.00;;;28.19;86.91
56040;BME280;43937;41.366;2.072;2023-08-17T01:12:32;100672.22;;;28.08;87.88
56040;BME280;43937;41.366;2.072;2023-08-17T01:15:16;100676.13;;;28.02;88.43
56040;BME280;43937;41.366;2.072;2023-08-17T01:17:56;100670.50;;;28.07;86.63
56040;BME280;43937;41.366;2.072;2023-08-17T01:20:24;100676.16;;;27.92;88.07
56040;BME280;43937;41.366;2.072;2023-08-17T01:22:52;100673.31;;;28.12;87.58
56040;BME280;43937;41.366;2.072;2023-08-17T01:25:22;100650.41;;;27.95;86.96
56040;BME280;43937;41.366;2.072;2023-08-17T01:27:48;100675.28;;;28.01;87.12
56040;BME280;43937;41.366;2.072;2023-08-17T01:30:16;100669.22;;;27.79;89.37
56040;BME280;43937;41.366;2.072;2023-08-17T01:35:23;100659.41;;;27.81;88.78
56040;BME280;43937;41.366;2.072;2023-08-17T01:37:56;100618.56;;;27.70;87.39
56040;BME280;43937;41.366;2.072;2023-08-17T01:40:23;100661.91;;;27.88;88.55
56040;BME280;43937;41.366;2.072;2023-08-17T01:42:50;100656.88;;;27.90;87.72
56040;BME280;43937;41.366;2.072;2023-08-17T01:45:16;100639.84;;;27.61;88.12
56040;BME280;43937;41.366;2.072;2023-08-17T01:47:41;100658.84;;;27.84;88.21
56040;BME280;43937;41.366;2.072;2023-08-17T01:50:07;100658.28;;;27.88;88.43
56040;BME280;43937;41.366;2.072;2023-08-17T01:52:32;100655.44;;;27.93;87.77
56040;BME280;43937;41.366;2.072;2023-08-17T01:54:58;100654.88;;;27.96;87.12
56040;BME280;43937;41.366;2.072;2023-08-17T01:57:23;100661.34;;;27.76;88.11
56040;BME280;43937;41.366;2.072;2023-08-17T01:59:49;100663.06;;;27.67;88.92
56040;BME280;43937;41.366;2.072;2023-08-17T02:02:14;100642.66;;;27.66;89.17
56040;BME280;43937;41.366;2.072;2023-08-17T02:04:40;100653.78;;;27.71;88.89
56040;BME280;43937;41.366;2.072;2023-08-17T02:07:05;100656.06;;;27.69;89.72
56040;BME280;43937;41.366;2.072;2023-08-17T02:09:31;100620.84;;;27.53;88.90
56040;BME280;43937;41.366;2.072;2023-08-17T02:11:56;100647.66;;;27.64;89.54
56040;BME280;43937;41.366;2.072;2023-08-17T02:14:22;100646.53;;;27.65;89.86
56040;BME280;43937;41.366;2.072;2023-08-17T02:18:06;100652.13;;;27.75;88.86
56040;BME280;43937;41.366;2.072;2023-08-17T02:20:31;100649.31;;;27.85;88.80
56040;BME280;43937;41.366;2.072;2023-08-17T02:22:57;100658.56;;;27.66;89.61
56040;BME280;43937;41.366;2.072;2023-08-17T02:25:22;100656.88;;;27.75;88.80
56040;BME280;43937;41.366;2.072;2023-08-17T02:27:48;100645.44;;;27.56;90.41
56040;BME280;43937;41.366;2.072;2023-08-17T02:30:14;100640.94;;;27.75;89.82
56040;BME280;43937;41.366;2.072;2023-08-17T02:32:39;100650.44;;;27.74;88.81
56040;BME280;43937;41.366;2.072;2023-08-17T02:35:05;100635.94;;;27.52;90.53
56040;BME280;43937;41.366;2.072;2023-08-17T02:37:31;100642.34;;;27.68;89.50
56040;BME280;43937;41.366;2.072;2023-08-17T02:39:57;100596.56;;;27.28;90.55
56040;BME280;43937;41.366;2.072;2023-08-17T02:42:22;100639.84;;;27.66;89.38
56040;BME280;43937;41.366;2.072;2023-08-17T02:44:47;100595.19;;;27.25;90.37
56040;BME280;43937;41.366;2.072;2023-08-17T02:47:13;100636.47;;;27.64;89.36
56040;BME280;43937;41.366;2.072;2023-08-17T02:49:38;100624.53;;;27.33;90.88
56040;BME280;43937;41.366;2.072;2023-08-17T02:53:48;100621.69;;;27.38;90.73
56040;BME280;43937;41.366;2.072;2023-08-17T02:56:13;100600.75;;;27.40;89.10
56040;BME280;43937;41.366;2.072;2023-08-17T02:58:39;100590.69;;;27.34;89.55
56040;BME280;43937;41.366;2.072;2023-08-17T03:01:08;100621.72;;;27.43;89.73
56040;BME280;43937;41.366;2.072;2023-08-17T03:03:34;100602.44;;;27.42;90.08
56040;BME280;43937;41.366;2.072;2023-08-17T03:06:00;100619.75;;;27.49;90.00
56040;BME280;43937;41.366;2.072;2023-08-17T03:08:26;100622.53;;;27.49;89.75
56040;BME280;43937;41.366;2.072;2023-08-17T03:10:51;100617.78;;;27.49;89.31
56040;BME280;43937;41.366;2.072;2023-08-17T03:13:16;100570.31;;;27.08;89.07
56040;BME280;43937;41.366;2.072;2023-08-17T03:15:42;100618.03;;;27.53;88.47
56040;BME280;43937;41.366;2.072;2023-08-17T03:18:10;100570.59;;;27.22;88.82
56040;BME280;43937;41.366;2.072;2023-08-17T03:20:36;100625.59;;;27.52;88.44
56040;BME280;43937;41.366;2.072;2023-08-17T03:23:01;100628.09;;;27.59;88.17
56040;BME280;43937;41.366;2.072;2023-08-17T03:25:27;100601.34;;;27.22;89.34
56040;BME280;43937;41.366;2.072;2023-08-17T03:27:53;100611.94;;;27.30;89.31
56040;BME280;43937;41.366;2.072;2023-08-17T03:30:18;100592.38;;;27.35;88.35
56040;BME280;43937;41.366;2.072;2023-08-17T03:32:44;100628.09;;;27.59;88.33
56040;BME280;43937;41.366;2.072;2023-08-17T03:35:09;100632.53;;;27.80;87.32
56040;BME280;43937;41.366;2.072;2023-08-17T03:37:35;100632.53;;;27.80;86.28
56040;BME280;43937;41.366;2.072;2023-08-17T03:40:00;100615.50;;;27.61;86.39
56040;BME280;43937;41.366;2.072;2023-08-17T03:44:13;100621.94;;;27.67;87.22
56040;BME280;43937;41.366;2.072;2023-08-17T03:46:40;100602.66;;;27.55;87.23
56040;BME280;43937;41.366;2.072;2023-08-17T03:49:06;100635.09;;;27.67;87.28
56040;BME280;43937;41.366;2.072;2023-08-17T03:51:31;100633.72;;;27.44;88.03
56040;BME280;43937;41.366;2.072;2023-08-17T03:53:57;100626.16;;;27.44;87.89
56040;BME280;43937;41.366;2.072;2023-08-17T03:56:22;100626.44;;;27.58;87.41
56040;BME280;43937;41.366;2.072;2023-08-17T03:58:47;100600.78;;;27.15;88.82
56040;BME280;43937;41.366;2.072;2023-08-17T04:01:13;100592.38;;;27.30;88.56
56040;BME280;43937;41.366;2.072;2023-08-17T04:03:39;100596.53;;;27.43;87.29
56040;BME280;43937;41.366;2.072;2023-08-17T04:06:08;100624.78;;;27.52;87.10
56040;BME280;43937;41.366;2.072;2023-08-17T04:08:36;100637.06;;;27.40;87.85
56040;BME280;43937;41.366;2.072;2023-08-17T04:11:03;100634.59;;;27.39;88.23
56040;BME280;43937;41.366;2.072;2023-08-17T04:13:28;100613.31;;;27.48;87.18
56040;BME280;43937;41.366;2.072;2023-08-17T04:15:53;100611.88;;;27.56;86.73
56040;BME280;43937;41.366;2.072;2023-08-17T04:19:57;100620.84;;;27.58;85.86
56040;BME280;43937;41.366;2.072;2023-08-17T04:22:23;100636.47;;;27.64;85.52
56040;BME280;43937;41.366;2.072;2023-08-17T04:24:49;100628.94;;;27.70;85.71
56040;BME280;43937;41.366;2.072;2023-08-17T04:27:14;100622.19;;;27.71;85.30
56040;BME280;43937;41.366;2.072;2023-08-17T04:29:39;100577.25;;;27.52;83.90
56040;BME280;43937;41.366;2.072;2023-08-17T04:32:05;100621.06;;;27.77;84.21
56040;BME280;43937;41.366;2.072;2023-08-17T04:34:31;100631.19;;;27.78;84.42
56040;BME280;43937;41.366;2.072;2023-08-17T04:36:56;100624.72;;;27.82;83.11
56040;BME280;43937;41.366;2.072;2023-08-17T04:39:21;100596.25;;;27.55;83.38
56040;BME280;43937;41.366;2.072;2023-08-17T04:41:47;100626.97;;;27.65;83.07
56040;BME280;43937;41.366;2.072;2023-08-17T04:44:13;100587.34;;;27.37;82.92
56040;BME280;43937;41.366;2.072;2023-08-17T04:46:38;100635.94;;;27.47;82.21
56040;BME280;43937;41.366;2.072;2023-08-17T04:49:04;100623.16;;;27.15;83.26
56040;BME280;43937;41.366;2.072;2023-08-17T04:51:30;100632.03;;;27.07;82.90
56040;BME280;43937;41.366;2.072;2023-08-17T04:53:55;100622.53;;;26.98;83.13
56040;BME280;43937;41.366;2.072;2023-08-17T04:56:21;100613.03;;;26.63;83.76
56040;BME280;43937;41.366;2.072;2023-08-17T04:58:46;100639.53;;;26.65;84.65
56040;BME280;43937;41.366;2.072;2023-08-17T05:01:12;100630.88;;;26.57;84.93
56040;BME280;43937;41.366;2.072;2023-08-17T05:03:37;100642.03;;;26.62;84.25
56040;BME280;43937;41.366;2.072;2023-08-17T05:06:02;100637.59;;;26.66;84.45
56040;BME280;43937;41.366;2.072;2023-08-17T05:08:28;100637.00;;;26.54;84.84
56040;BME280;43937;41.366;2.072;2023-08-17T05:10:54;100646.78;;;26.56;84.15
56040;BME280;43937;41.366;2.072;2023-08-17T05:13:19;100623.22;;;26.32;84.10
56040;BME280;43937;41.366;2.072;2023-08-17T05:15:45;100596.44;;;26.20;84.40
56040;BME280;43937;41.366;2.072;2023-08-17T05:18:10;100621.31;;;26.37;83.75
56040;BME280;43937;41.366;2.072;2023-08-17T05:20:36;100588.31;;;26.14;83.56
56040;BME280;43937;41.366;2.072;2023-08-17T05:23:01;100607.09;;;26.44;82.63
56040;BME280;43937;41.366;2.072;2023-08-17T05:25:27;100634.25;;;26.69;82.02
56040;BME280;43937;41.366;2.072;2023-08-17T05:27:54;100587.81;;;26.47;82.01
56040;BME280;43937;41.366;2.072;2023-08-17T05:30:20;100648.50;;;26.83;81.51
56040;BME280;43937;41.366;2.072;2023-08-17T05:32:45;100632.63;;;26.93;80.68
56040;BME280;43937;41.366;2.072;2023-08-17T05:35:11;100608.84;;;26.76;79.61
56040;BME280;43937;41.366;2.072;2023-08-17T05:37:37;100639.28;;;26.92;79.49
56040;BME280;43937;41.366;2.072;2023-08-17T05:40:02;100644.91;;;27.23;78.02
56040;BME280;43937;41.366;2.072;2023-08-17T05:44:13;100654.41;;;27.58;76.88
56040;BME280;43937;41.366;2.072;2023-08-17T05:46:40;100642.31;;;27.88;75.81
56040;BME280;43937;41.366;2.072;2023-08-17T05:49:06;100628.53;;;28.07;73.66
56040;BME280;43937;41.366;2.072;2023-08-17T05:51:31;100614.28;;;28.08;72.33
56040;BME280;43937;41.366;2.072;2023-08-17T05:53:57;100645.06;;;29.42;67.47
56040;BME280;43937;41.366;2.072;2023-08-17T05:56:22;100652.19;;;30.35;62.79
56040;BME280;43937;41.366;2.072;2023-08-17T05:58:50;100652.91;;;30.84;60.56
56040;BME280;43937;41.366;2.072;2023-08-17T06:01:16;100634.53;;;31.71;57.42
56040;BME280;43937;41.366;2.072;2023-08-17T06:03:41;100656.03;;;32.36;54.36
56040;BME280;43937;41.366;2.072;2023-08-17T06:06:09;100662.63;;;32.81;53.72
56040;BME280;43937;41.366;2.072;2023-08-17T06:08:35;100672.56;;;33.38;52.11
56040;BME280;43937;41.366;2.072;2023-08-17T06:11:00;100672.19;;;33.08;51.43
56040;BME280;43937;41.366;2.072;2023-08-17T06:13:26;100674.31;;;33.79;50.18
56040;BME280;43937;41.366;2.072;2023-08-17T06:17:25;100632.91;;;34.54;47.16
56040;BME280;43937;41.366;2.072;2023-08-17T06:19:50;100674.41;;;35.75;45.23
56040;BME280;43937;41.366;2.072;2023-08-17T06:23:38;100684.66;;;36.35;43.35
56040;BME280;43937;41.366;2.072;2023-08-17T06:26:03;100665.69;;;35.24;45.14
56040;BME280;43937;41.366;2.072;2023-08-17T06:28:29;100650.72;;;35.79;43.54
56040;BME280;43937;41.366;2.072;2023-08-17T06:30:55;100678.50;;;33.59;48.87
56040;BME280;43937;41.366;2.072;2023-08-17T06:33:23;100672.16;;;35.33;46.50
56040;BME280;43937;41.366;2.072;2023-08-17T06:35:49;100684.25;;;36.45;42.89
56040;BME280;43937;41.366;2.072;2023-08-17T06:38:17;100701.09;;;37.89;39.89
56040;BME280;43937;41.366;2.072;2023-08-17T06:40:43;100700.06;;;38.30;38.31
56040;BME280;43937;41.366;2.072;2023-08-17T06:43:09;100681.41;;;38.82;38.54
56040;BME280;43937;41.366;2.072;2023-08-17T06:45:35;100697.53;;;39.30;38.17
56040;BME280;43937;41.366;2.072;2023-08-17T06:48:00;100711.47;;;40.55;35.64
56040;BME280;43937;41.366;2.072;2023-08-17T06:50:28;100712.53;;;40.82;35.46
56040;BME280;43937;41.366;2.072;2023-08-17T06:52:54;100683.50;;;39.97;36.78
56040;BME280;43937;41.366;2.072;2023-08-17T06:55:19;100676.72;;;39.14;38.08
56040;BME280;43937;41.366;2.072;2023-08-17T06:57:45;100698.84;;;39.33;37.59
56040;BME280;43937;41.366;2.072;2023-08-17T07:00:11;100711.50;;;39.07;38.53
56040;BME280;43937;41.366;2.072;2023-08-17T07:02:37;100675.31;;;40.43;35.85
56040;BME280;43937;41.366;2.072;2023-08-17T07:05:03;100714.53;;;40.82;35.58
56040;BME280;43937;41.366;2.072;2023-08-17T07:07:29;100675.91;;;40.01;36.02
56040;BME280;43937;41.366;2.072;2023-08-17T07:09:57;100712.47;;;39.99;36.35
56040;BME280;43937;41.366;2.072;2023-08-17T07:12:22;100710.72;;;40.42;36.40
56040;BME280;43937;41.366;2.072;2023-08-17T07:14:49;100695.59;;;37.38;40.56
56040;BME280;43937;41.366;2.072;2023-08-17T07:17:14;100718.38;;;39.47;37.60
56040;BME280;43937;41.366;2.072;2023-08-17T07:19:40;100697.13;;;36.13;44.27
56040;BME280;43937;41.366;2.072;2023-08-17T07:22:06;100666.16;;;35.99;44.27
56040;BME280;43937;41.366;2.072;2023-08-17T07:24:32;100705.88;;;37.64;41.25
56040;BME280;43937;41.366;2.072;2023-08-17T07:26:57;100711.94;;;37.74;41.15
56040;BME280;43937;41.366;2.072;2023-08-17T07:29:23;100718.84;;;37.86;40.65
56040;BME280;43937;41.366;2.072;2023-08-17T07:31:48;100684.31;;;37.96;40.18
56040;BME280;43937;41.366;2.072;2023-08-17T07:34:14;100712.97;;;37.57;41.17
56040;BME280;43937;41.366;2.072;2023-08-17T07:36:39;100715.69;;;38.98;38.96
56040;BME280;43937;41.366;2.072;2023-08-17T07:39:05;100710.13;;;38.27;39.69
56040;BME280;43937;41.366;2.072;2023-08-17T07:41:30;100710.13;;;38.77;39.35
56040;BME280;43937;41.366;2.072;2023-08-17T07:43:56;100704.75;;;39.00;39.19
56040;BME280;43937;41.366;2.072;2023-08-17T07:46:21;100710.38;;;38.22;39.76
56040;BME280;43937;41.366;2.072;2023-08-17T07:48:47;100722.34;;;40.49;36.35
56040;BME280;43937;41.366;2.072;2023-08-17T07:51:12;100694.09;;;40.44;35.74
56040;BME280;43937;41.366;2.072;2023-08-17T07:53:38;100699.75;;;40.76;35.03
56040;BME280;43937;41.366;2.072;2023-08-17T07:56:04;100701.56;;;41.62;33.72
56040;BME280;43937;41.366;2.072;2023-08-17T07:58:29;100695.44;;;40.66;35.44
56040;BME280;43937;41.366;2.072;2023-08-17T08:00:55;100706.34;;;38.23;39.41
56040;BME280;43937;41.366;2.072;2023-08-17T08:03:20;100668.78;;;38.55;38.68
56040;BME280;43937;41.366;2.072;2023-08-17T08:05:46;100719.38;;;38.86;38.66
56040;BME280;43937;41.366;2.072;2023-08-17T08:08:11;100707.81;;;40.23;36.83
56040;BME280;43937;41.366;2.072;2023-08-17T08:10:37;100709.84;;;39.62;36.82
56040;BME280;43937;41.366;2.072;2023-08-17T08:13:02;100720.00;;;39.20;37.97
56040;BME280;43937;41.366;2.072;2023-08-17T08:15:28;100709.78;;;39.31;37.44
56040;BME280;43937;41.366;2.072;2023-08-17T08:17:53;100705.50;;;38.84;38.15
56040;BME280;43937;41.366;2.072;2023-08-17T08:20:20;100704.53;;;40.72;34.72
56040;BME280;43937;41.366;2.072;2023-08-17T08:22:46;100699.88;;;41.80;32.72
56040;BME280;43937;41.366;2.072;2023-08-17T08:25:11;100700.38;;;41.43;33.11
56040;BME280;43937;41.366;2.072;2023-08-17T08:27:37;100692.56;;;40.82;34.04
56040;BME280;43937;41.366;2.072;2023-08-17T08:30:02;100688.38;;;41.34;33.34
56040;BME280;43937;41.366;2.072;2023-08-17T08:32:28;100704.75;;;40.47;34.76
56040;BME280;43937;41.366;2.072;2023-08-17T08:34:53;100700.88;;;40.56;35.00
56040;BME280;43937;41.366;2.072;2023-08-17T08:37:55;100689.50;;;39.92;35.54
56040;BME280;43937;41.366;2.072;2023-08-17T08:40:29;100697.66;;;39.34;36.97
56040;BME280;43937;41.366;2.072;2023-08-17T08:42:55;100665.72;;;40.51;34.32
56040;BME280;43937;41.366;2.072;2023-08-17T08:45:22;100678.00;;;39.16;37.24
56040;BME280;43937;41.366;2.072;2023-08-17T08:47:48;100691.16;;;38.81;38.29
56040;BME280;43937;41.366;2.072;2023-08-17T08:50:18;100689.69;;;39.27;37.48
56040;BME280;43937;41.366;2.072;2023-08-17T08:53:00;100686.06;;;39.14;37.43
56040;BME280;43937;41.366;2.072;2023-08-17T08:55:30;100697.66;;;37.83;39.40
56040;BME280;43937;41.366;2.072;2023-08-17T08:57:59;100660.25;;;37.14;40.32
56040;BME280;43937;41.366;2.072;2023-08-17T09:00:26;100685.78;;;36.43;41.60
56040;BME280;43937;41.366;2.072;2023-08-17T09:02:52;100654.19;;;35.29;44.38
56040;BME280;43937;41.366;2.072;2023-08-17T09:05:18;100686.47;;;35.02;45.37
56040;BME280;43937;41.366;2.072;2023-08-17T09:07:48;100680.19;;;35.05;45.76
56040;BME280;43937;41.366;2.072;2023-08-17T09:10:14;100654.84;;;34.57;47.20
56040;BME280;43937;41.366;2.072;2023-08-17T09:12:41;100677.50;;;35.18;45.84
56040;BME280;43937;41.366;2.072;2023-08-17T09:15:07;100669.72;;;34.40;46.92
56040;BME280;43937;41.366;2.072;2023-08-17T09:17:32;100674.44;;;33.73;49.63
56040;BME280;43937;41.366;2.072;2023-08-17T09:20:01;100674.19;;;33.84;49.36
56040;BME280;43937;41.366;2.072;2023-08-17T09:22:42;100678.06;;;33.43;50.42
56040;BME280;43937;41.366;2.072;2023-08-17T09:25:10;100658.47;;;33.15;50.74
56040;BME280;43937;41.366;2.072;2023-08-17T09:27:38;100664.53;;;33.31;51.37
56040;BME280;43937;41.366;2.072;2023-08-17T09:30:04;100661.34;;;34.09;49.53
56040;BME280;43937;41.366;2.072;2023-08-17T09:32:31;100664.75;;;33.97;50.22
56040;BME280;43937;41.366;2.072;2023-08-17T09:34:57;100640.97;;;34.29;48.99
56040;BME280;43937;41.366;2.072;2023-08-17T09:37:26;100645.78;;;33.89;48.92
56040;BME280;43937;41.366;2.072;2023-08-17T09:39:53;100667.56;;;33.57;49.75
56040;BME280;43937;41.366;2.072;2023-08-17T09:42:20;100645.38;;;32.60;52.47
56040;BME280;43937;41.366;2.072;2023-08-17T09:44:46;100663.00;;;32.66;51.55
56040;BME280;43937;41.366;2.072;2023-08-17T09:47:12;100675.31;;;33.51;50.47
56040;BME280;43937;41.366;2.072;2023-08-17T09:49:38;100673.84;;;33.85;49.79
56040;BME280;43937;41.366;2.072;2023-08-17T09:52:04;100667.88;;;33.87;50.10
56040;BME280;43937;41.366;2.072;2023-08-17T09:54:31;100658.56;;;34.17;49.05
56040;BME280;43937;41.366;2.072;2023-08-17T09:56:57;100657.13;;;34.46;46.88
56040;BME280;43937;41.366;2.072;2023-08-17T09:59:23;100616.88;;;33.92;48.02
56040;BME280;43937;41.366;2.072;2023-08-17T10:01:50;100648.16;;;34.44;47.09
56040;BME280;43937;41.366;2.072;2023-08-17T10:04:21;100647.31;;;34.52;46.85
56040;BME280;43937;41.366;2.072;2023-08-17T10:06:58;100663.88;;;34.28;47.35
56040;BME280;43937;41.366;2.072;2023-08-17T10:09:28;100658.16;;;34.68;45.64
56040;BME280;43937;41.366;2.072;2023-08-17T10:11:57;100662.00;;;34.72;45.96
56040;BME280;43937;41.366;2.072;2023-08-17T10:14:37;100655.31;;;34.02;45.98
56040;BME280;43937;41.366;2.072;2023-08-17T10:17:09;100674.22;;;34.01;46.53
56040;BME280;43937;41.366;2.072;2023-08-17T10:19:51;100631.50;;;34.42;45.73
56040;BME280;43937;41.366;2.072;2023-08-17T10:22:31;100663.19;;;34.62;44.61
56040;BME280;43937;41.366;2.072;2023-08-17T10:25:00;100650.06;;;34.09;46.47
56040;BME280;43937;41.366;2.072;2023-08-17T10:27:27;100614.84;;;33.75;46.71
56040;BME280;43937;41.366;2.072;2023-08-17T10:29:53;100660.91;;;34.24;45.99
56040;BME280;43937;41.366;2.072;2023-08-17T10:32:21;100654.03;;;34.56;44.59
56040;BME280;43937;41.366;2.072;2023-08-17T10:34:48;100649.34;;;33.63;46.52
56040;BME280;43937;41.366;2.072;2023-08-17T10:37:15;100651.56;;;33.75;45.94
56040;BME280;43937;41.366;2.072;2023-08-17T10:39:48;100655.72;;;34.17;45.02
56040;BME280;43937;41.366;2.072;2023-08-17T10:42:14;100659.13;;;33.97;45.57
56040;BME280;43937;41.366;2.072;2023-08-17T10:44:43;100652.75;;;34.23;45.33
56040;BME280;43937;41.366;2.072;2023-08-17T10:49:49;100638.63;;;33.83;46.38
56040;BME280;43937;41.366;2.072;2023-08-17T10:52:15;100645.50;;;33.99;46.05
56040;BME280;43937;41.366;2.072;2023-08-17T10:54:49;100635.94;;;34.09;45.78
56040;BME280;43937;41.366;2.072;2023-08-17T10:57:37;100634.03;;;33.95;45.48
56040;BME280;43937;41.366;2.072;2023-08-17T11:02:37;100631.75;;;33.66;46.49
56040;BME280;43937;41.366;2.072;2023-08-17T11:05:03;100640.66;;;33.91;46.45
56040;BME280;43937;41.366;2.072;2023-08-17T11:07:43;100624.53;;;33.51;46.99
56040;BME280;43937;41.366;2.072;2023-08-17T11:12:44;100624.88;;;33.90;46.11
56040;BME280;43937;41.366;2.072;2023-08-17T11:15:09;100598.81;;;33.53;46.69
56040;BME280;43937;41.366;2.072;2023-08-17T11:17:35;100618.69;;;33.79;46.37
56040;BME280;43937;41.366;2.072;2023-08-17T11:20:01;100610.50;;;33.15;48.43
56040;BME280;43937;41.366;2.072;2023-08-17T11:22:27;100588.72;;;33.29;47.75
56040;BME280;43937;41.366;2.072;2023-08-17T11:24:53;100610.00;;;33.67;46.75
56040;BME280;43937;41.366;2.072;2023-08-17T11:27:20;100621.69;;;34.31;45.21
56040;BME280;43937;41.366;2.072;2023-08-17T11:29:45;100609.44;;;33.96;45.90
56040;BME280;43937;41.366;2.072;2023-08-17T11:32:11;100608.56;;;33.47;46.97
56040;BME280;43937;41.366;2.072;2023-08-17T11:34:37;100589.69;;;33.02;48.50
56040;BME280;43937;41.366;2.072;2023-08-17T11:37:04;100593.56;;;33.38;47.67
56040;BME280;43937;41.366;2.072;2023-08-17T11:39:33;100607.28;;;33.30;48.63
56040;BME280;43937;41.366;2.072;2023-08-17T11:42:01;100620.16;;;33.68;47.67
56040;BME280;43937;41.366;2.072;2023-08-17T11:44:27;100602.22;;;33.41;47.93
56040;BME280;43937;41.366;2.072;2023-08-17T11:46:53;100617.03;;;33.78;47.77
56040;BME280;43937;41.366;2.072;2023-08-17T11:49:18;100617.44;;;33.09;49.82
56040;BME280;43937;41.366;2.072;2023-08-17T11:51:44;100563.22;;;33.12;49.11
56040;BME280;43937;41.366;2.072;2023-08-17T11:54:10;100597.41;;;33.19;49.50
56040;BME280;43937;41.366;2.072;2023-08-17T11:56:36;100607.56;;;33.83;48.40
56040;BME280;43937;41.366;2.072;2023-08-17T11:59:09;100601.56;;;33.44;50.05
56040;BME280;43937;41.366;2.072;2023-08-17T12:01:36;100604.06;;;33.77;49.55
56040;BME280;43937;41.366;2.072;2023-08-17T12:04:04;100613.50;;;34.12;48.61
56040;BME280;43937;41.366;2.072;2023-08-17T12:06:30;100609.16;;;33.13;50.93
56040;BME280;43937;41.366;2.072;2023-08-17T12:08:56;100627.09;;;33.39;50.24
56040;BME280;43937;41.366;2.072;2023-08-17T12:11:24;100604.09;;;32.78;51.74
56040;BME280;43937;41.366;2.072;2023-08-17T12:13:51;100599.34;;;33.33;50.82
56040;BME280;43937;41.366;2.072;2023-08-17T12:16:17;100610.78;;;33.05;51.59
56040;BME280;43937;41.366;2.072;2023-08-17T12:18:52;100604.19;;;32.73;52.97
56040;BME280;43937;41.366;2.072;2023-08-17T12:21:22;100579.34;;;32.75;53.08
56040;BME280;43937;41.366;2.072;2023-08-17T12:23:48;100598.09;;;32.57;53.67
56040;BME280;43937;41.366;2.072;2023-08-17T12:26:20;100589.47;;;32.76;53.97
56040;BME280;43937;41.366;2.072;2023-08-17T12:28:46;100570.50;;;32.91;52.86
56040;BME280;43937;41.366;2.072;2023-08-17T12:31:11;100567.91;;;33.25;51.51
56040;BME280;43937;41.366;2.072;2023-08-17T12:33:37;100564.88;;;32.91;52.97
56040;BME280;43937;41.366;2.072;2023-08-17T12:36:03;100584.06;;;33.34;52.27
56040;BME280;43937;41.366;2.072;2023-08-17T12:38:29;100553.59;;;33.13;52.48
56040;BME280;43937;41.366;2.072;2023-08-17T12:40:54;100605.28;;;33.54;52.28
56040;BME280;43937;41.366;2.072;2023-08-17T12:43:20;100600.03;;;32.71;53.51
56040;BME280;43937;41.366;2.072;2023-08-17T12:45:46;100575.28;;;32.31;54.33
56040;BME280;43937;41.366;2.072;2023-08-17T12:48:11;100567.56;;;32.51;54.04
56040;BME280;43937;41.366;2.072;2023-08-17T12:50:36;100581.59;;;32.87;53.06
56040;BME280;43937;41.366;2.072;2023-08-17T12:53:02;100582.91;;;33.03;52.46
56040;BME280;43937;41.366;2.072;2023-08-17T12:55:27;100594.06;;;32.95;53.39
56040;BME280;43937;41.366;2.072;2023-08-17T12:57:53;100581.78;;;33.13;51.78
56040;BME280;43937;41.366;2.072;2023-08-17T13:00:18;100571.78;;;33.07;52.37
56040;BME280;43937;41.366;2.072;2023-08-17T13:02:44;100588.19;;;32.82;52.40
56040;BME280;43937;41.366;2.072;2023-08-17T13:05:11;100585.81;;;32.76;53.89
56040;BME280;43937;41.366;2.072;2023-08-17T13:07:37;100571.78;;;32.98;53.76
56040;BME280;43937;41.366;2.072;2023-08-17T13:10:06;100544.84;;;32.92;52.20